Warren, AR (71671)

4:18 PM CDT on August 30, 2014 (GMT -0500)
Hwy 172 | Change Station
CLOSE
Current Station
Personal Weather Station
Location: Monticello, AR
Elevation: 246 ft
Nearby Weather Stations

Elev 246 ft 33.55 °N, 91.82 °W | Updated 3 minutes ago

Mostly Cloudy
Mostly Cloudy
76.1 °F
Feels Like 78 °F
N
0.0
Wind Variable Wind from South
Gusts 0.0 mph

Today
High -- | Low -- °F
--% Chance of Precip.
Yesterday
High -- | Low -- °F
Precip. -- in
6:40 AM 7:36 PM
Waxing Crescent, 24% visible
Pressure 29.95 in
Visibility 10.0 miles
Clouds Mostly Cloudy 600 ft
Heat Index 78 °F
Dew Point 65 °F
Humidity 69%
Rainfall 0.22 in
Snow Depth Not available.
UV 3 out of 12
Pollen 6.60 out of 12
Air Quality Not available.
Flu Activity Not available.
METAR KLLQ 302053Z AUTO 09005KT 10SM BKN006 25/23 A2995 RMK AO2 RAE39 CIG 004V012 SLP140 P0001 60004 T02500233 58020

More Conditions Fewer Conditions

Pressure 29.95 in
Visibility 10.0 miles
Clouds Mostly Cloudy 600 ft
Heat Index 78 °F
Dew Point 65 °F
Humidity 69%
Rainfall 0.22 in
Snow Depth Not available.
UV 3 out of 12
Pollen 6.60 out of 12
Air Quality Not available.
Flu Activity Not available.
METAR KLLQ 302053Z AUTO 09005KT 10SM BKN006 25/23 A2995 RMK AO2 RAE39 CIG 004V012 SLP140 P0001 60004 T02500233 58020

More Conditions Fewer Conditions

10-Day Weather Forecast

Almanac

Astronomy

Aug. 30, 2014 Rise Set
Actual Time 6:40 AM CDT 7:36 PM CDT
Civil Twilight 6:15 AM CDT 8:01 PM CDT
Nautical Twilight 5:45 AM CDT 8:31 PM CDT
Astronomical Twilight 5:14 AM CDT 9:02 PM CDT
Moon 11:13 AM CDT 10:27 PM CDT
Length of Visible Light 13h 46m
Length of Day
12h 55m
Tomorrow will be 1m 59s shorter.
Waxing Crescent, 24% of the Moon is Illuminated
Today
Waxing Crescent
Sep 2
First Quarter
Sep 8
Full
Sep 15
Last Quarter
Sep 24
New

Today's Extremes

State Highs State Lows

Community

WunderPhotos

Upload Photos

1,748,634 photos uploaded!

WunderBlogs® & News

Nearby

Snow Depth

Station Depth Elevation
No new snow has been reported.

Earthquake Activity

City Distance Mag. Time & Date
No recent earthquake activity has been reported nearby.
Minimum magnitude displayed is 2.5.

Coastal Water Temperatures

Place Temperature
No Stations Reporting

Nearby Weather Stations